Weather reports worldwide

Advertisment
Palma De Mallorca, Spain (8301): temperature & dewpoint: 14.01.2021 13:00:00 - 20.01.2021 13:00:00 (CET)Palma De Mallorca, Spain (8301): wind speed & gusts: 14.01.2021 13:00:00 - 20.01.2021 13:00:00 (CET)Palma De Mallorca, Spain (8301): wind direction: 14.01.2021 13:00:00 - 20.01.2021 13:00:00 (CET)Palma De Mallorca, Spain (8301): reduced air pressure: 14.01.2021 13:00:00 - 20.01.2021 13:00:00 (CET)Palma De Mallorca, Spain (8301): precipitation: 14.01.2021 13:00:00 - 20.01.2021 13:00:00 (CET)
Date & Time tt [°C] td [°C] ff [km/h] ff [kn] fx [km/h] fx [kn] dd ppp [hPa] rr [mm]
20.01.2021 13:00:00 14,7 11,3 10 5 21 11 S 1015,0 -
20.01.2021 12:00:00 14,4 11,3 2 1 6 3 S 1016,4 0,0
20.01.2021 11:00:00 12,9 10,6 3 1 10 6 NNE 1017,0 0,0
20.01.2021 10:00:00 11,9 9,9 6 3 10 6 N 1017,1 0,0
20.01.2021 09:00:00 9,7 9,0 0 0 6 3 N 1017,3 0,0
20.01.2021 08:00:00 9,0 8,4 3 1 7 4 N 1017,7 0,0
20.01.2021 07:00:00 9,3 8,5 2 1 7 4 N 1018,1 -
20.01.2021 06:00:00 9,6 8,8 3 2 6 3 N 1018,5 0,0
20.01.2021 05:00:00 9,6 8,8 0 0 3 2 N 1018,9 0,0
20.01.2021 04:00:00 9,7 8,9 2 1 6 4 N 1019,7 0,0
20.01.2021 03:00:00 9,8 8,8 2 1 9 5 N 1020,2 0,0
20.01.2021 02:00:00 10,6 9,2 4 2 7 4 NNW 1020,6 0,0
20.01.2021 01:00:00 10,5 9,0 3 2 6 3 N 1021,2 -
20.01.2021 00:00:00 11,0 9,3 2 1 6 4 N 1022,1 0,0
19.01.2021 23:00:00 11,8 9,2 4 2 8 5 NNW 1022,4 0,0
19.01.2021 22:00:00 13,3 9,7 5 3 15 8 SSW 1022,6 0,0
19.01.2021 21:00:00 13,5 9,7 8 5 16 8 SSW 1023,0 0,0
19.01.2021 20:00:00 13,5 9,3 8 4 17 9 S 1023,4 0,0
19.01.2021 19:00:00 13,6 9,4 6 3 18 10 S 1023,3 -
19.01.2021 18:00:00 13,7 9,3 8 5 20 11 SSW 1023,4 0,0
19.01.2021 17:00:00 14,2 9,4 9 5 18 10 S 1023,5 0,0
19.01.2021 16:00:00 14,7 9,6 10 5 19 11 S 1023,9 0,0
19.01.2021 15:00:00 14,7 9,7 11 6 23 13 S 1024,1 0,0
19.01.2021 14:00:00 14,7 10,3 5 3 12 6 S 1024,7 0,0
19.01.2021 13:00:00 15,3 10,3 6 3 10 5 SSE 1025,7 -
19.01.2021 12:00:00 15,6 9,7 3 2 6 3 ESE 1026,6 0,0
19.01.2021 11:00:00 13,1 8,8 2 1 7 4 NE 1026,9 0,0
19.01.2021 10:00:00 11,1 8,1 4 2 6 4 NE 1026,7 0,0
19.01.2021 09:00:00 8,2 7,1 3 2 5 3 NE 1026,7 0,0
19.01.2021 08:00:00 7,7 6,8 3 2 6 3 NNE 1026,7 0,0
19.01.2021 07:00:00 7,6 6,8 4 2 6 3 NNE 1026,5 -
19.01.2021 06:00:00 7,3 6,5 0 0 5 3 NNE 1026,6 0,0
19.01.2021 05:00:00 7,6 6,7 4 2 6 4 NNE 1026,6 0,0
19.01.2021 04:00:00 7,8 6,7 4 2 5 3 N 1027,1 0,0
19.01.2021 03:00:00 7,9 6,8 0 0 3 2 N 1027,4 0,0
19.01.2021 02:00:00 8,2 6,8 0 0 4 2 N 1027,6 0,0
19.01.2021 01:00:00 8,6 6,8 0 0 4 2 N 1027,9 -
19.01.2021 00:00:00 9,2 7,0 3 2 6 4 NNE 1028,2 0,0
18.01.2021 23:00:00 10,1 7,1 3 1 7 4 N 1028,2 0,0
18.01.2021 22:00:00 10,2 7,1 5 3 8 4 NNE 1028,1 0,0
18.01.2021 21:00:00 12,4 6,7 5 3 14 8 SSW 1028,1 0,0
18.01.2021 20:00:00 12,6 6,7 6 3 15 8 SSW 1027,8 0,0
18.01.2021 19:00:00 12,9 7,3 5 3 11 6 S 1027,8 -
18.01.2021 18:00:00 12,9 7,1 5 3 11 6 SSW 1027,3 0,0
18.01.2021 17:00:00 13,2 7,0 5 3 13 7 SSW 1026,8 0,0
18.01.2021 16:00:00 13,1 6,4 7 4 14 7 S 1026,7 0,0
18.01.2021 15:00:00 13,4 6,7 6 3 15 8 SSW 1026,6 0,0
18.01.2021 14:00:00 13,5 6,4 6 4 14 7 SW 1026,9 0,0
18.01.2021 13:00:00 13,2 5,8 5 3 9 5 SSW 1027,3 -
18.01.2021 12:00:00 13,6 4,6 3 2 8 4 SE 1028,2 0,0
18.01.2021 11:00:00 12,7 4,5 2 1 11 6 NE 1028,4 0,0
18.01.2021 10:00:00 11,6 3,6 5 3 11 6 NNE 1028,0 0,0
18.01.2021 09:00:00 9,9 3,4 3 2 9 5 NNW 1027,4 0,0
18.01.2021 08:00:00 9,7 3,0 6 3 11 6 NNW 1027,0 0,0
18.01.2021 07:00:00 9,5 3,2 6 3 16 8 N 1026,7 -
18.01.2021 06:00:00 9,9 3,6 9 5 18 10 N 1026,0 0,0
18.01.2021 05:00:00 9,5 3,6 7 4 20 11 N 1025,4 0,0
18.01.2021 04:00:00 10,0 4,1 11 6 19 10 N 1025,3 0,0
18.01.2021 03:00:00 10,4 3,9 8 4 22 12 N 1025,4 0,0
18.01.2021 02:00:00 11,7 2,7 11 6 23 12 NE 1025,2 0,0
18.01.2021 01:00:00 12,2 4,6 11 6 23 12 NE 1025,3 -
18.01.2021 00:00:00 12,5 8,4 5 3 16 8 E 1025,4 0,0
17.01.2021 23:00:00 13,4 7,1 5 3 18 10 ENE 1024,7 0,0
17.01.2021 22:00:00 14,7 8,7 11 6 19 10 ENE 1023,7 0,0
17.01.2021 21:00:00 15,0 6,5 3 1 38 20 SW 1023,1 0,0
17.01.2021 20:00:00 14,7 6,7 4 2 14 8 SE 1022,5 0,0
17.01.2021 19:00:00 14,6 7,6 8 4 17 9 SW 1022,2 -
17.01.2021 18:00:00 16,5 4,1 10 5 28 15 NNW 1021,7 0,0
17.01.2021 17:00:00 17,3 3,2 7 4 15 8 NNW 1021,3 0,0
17.01.2021 16:00:00 17,9 7,3 5 3 24 13 W 1021,4 0,0
17.01.2021 15:00:00 17,5 7,3 8 5 24 13 WSW 1021,7 0,0
17.01.2021 14:00:00 18,5 5,3 2 1 32 17 W 1022,3 0,0
17.01.2021 13:00:00 17,8 5,0 9 5 26 14 W 1022,9 -
17.01.2021 12:00:00 16,9 4,8 3 1 22 12 NE 1023,9 0,0
17.01.2021 11:00:00 16,0 4,6 4 2 20 11 NE 1024,6 0,0
17.01.2021 10:00:00 14,7 7,4 5 3 19 10 SSE 1024,6 0,0
17.01.2021 09:00:00 12,9 7,3 9 5 24 13 S 1023,9 0,0
17.01.2021 08:00:00 12,6 8,3 9 5 20 11 SSW 1024,0 0,0
17.01.2021 07:00:00 12,4 9,9 11 6 28 15 WSW 1024,4 -
17.01.2021 06:00:00 11,9 9,3 6 4 21 11 W 1024,4 0,0
17.01.2021 05:00:00 11,6 8,4 6 3 19 11 W 1024,6 0,0
17.01.2021 04:00:00 11,0 7,3 7 4 16 8 SW 1025,3 0,0
17.01.2021 03:00:00 9,9 6,8 3 1 10 6 SW 1025,9 0,0
17.01.2021 02:00:00 9,0 6,2 1 0 9 5 WSW 1026,3 0,0
17.01.2021 01:00:00 9,0 5,8 2 1 9 5 W 1026,6 -
17.01.2021 00:00:00 8,0 5,6 1 1 9 5 SSW 1027,3 0,0
16.01.2021 23:00:00 8,2 5,5 0 0 8 5 SSE 1027,0 0,0
16.01.2021 22:00:00 8,8 5,3 3 1 9 5 N 1026,9 0,0
16.01.2021 21:00:00 9,0 5,8 0 0 7 4 WSW 1026,8 0,0
16.01.2021 20:00:00 10,2 5,8 1 1 13 7 NNE 1026,7 0,0
16.01.2021 19:00:00 10,5 5,5 4 2 11 6 NW 1026,5 -
16.01.2021 18:00:00 11,4 5,5 9 5 14 7 NW 1025,8 0,0
16.01.2021 17:00:00 12,8 5,5 7 4 16 9 NNW 1025,2 0,0
16.01.2021 16:00:00 13,9 6,5 3 2 23 12 S 1024,6 0,0
16.01.2021 15:00:00 14,0 8,4 13 7 23 12 SSW 1024,6 0,0
16.01.2021 14:00:00 14,1 5,5 7 4 11 6 S 1024,9 0,0
16.01.2021 13:00:00 14,4 6,5 3 2 10 6 SSE 1025,1 -
16.01.2021 12:00:00 13,1 7,6 5 3 9 5 SE 1025,8 0,0
16.01.2021 11:00:00 11,4 7,0 4 2 7 4 ENE 1025,8 0,0
16.01.2021 10:00:00 10,2 6,4 1 0 8 4 SE 1025,1 0,0
16.01.2021 09:00:00 8,1 6,1 4 2 7 4 N 1024,1 0,0
16.01.2021 08:00:00 7,3 5,9 3 2 5 3 N 1023,7 0,0
16.01.2021 07:00:00 7,1 5,8 1 1 7 4 NNE 1023,1 -
16.01.2021 06:00:00 7,4 5,9 3 1 5 3 NE 1022,6 0,0
16.01.2021 05:00:00 7,4 5,8 0 0 8 4 ENE 1022,0 0,0
16.01.2021 04:00:00 8,0 6,1 0 0 5 3 N 1021,6 0,0
16.01.2021 03:00:00 8,5 6,1 2 1 6 4 NNE 1021,5 0,0
16.01.2021 02:00:00 8,9 5,8 3 2 10 5 NNW 1021,0 0,0
16.01.2021 01:00:00 9,0 5,0 4 2 11 6 NW 1020,9 -
16.01.2021 00:00:00 9,7 5,6 4 2 13 7 N 1021,2 0,0
15.01.2021 23:00:00 9,6 6,1 3 1 6 3 N 1020,6 0,0
15.01.2021 22:00:00 11,4 5,9 2 1 9 5 NW 1020,4 0,0
15.01.2021 21:00:00 10,2 5,8 1 0 6 3 WNW 1020,5 0,0
15.01.2021 20:00:00 11,5 5,1 2 1 9 5 WSW 1020,5 0,0
15.01.2021 19:00:00 12,4 4,6 2 1 18 10 ESE 1020,6 -
15.01.2021 18:00:00 12,3 5,3 4 2 16 9 NW 1020,6 0,0
15.01.2021 17:00:00 12,9 4,8 9 5 28 15 NW 1020,8 0,0
15.01.2021 16:00:00 12,7 5,3 7 4 21 12 NNW 1020,5 0,0
15.01.2021 15:00:00 13,0 5,1 3 2 28 15 N 1020,5 0,0
15.01.2021 14:00:00 13,0 5,1 10 6 31 17 NNW 1021,0 0,0
15.01.2021 13:00:00 13,3 5,1 4 2 37 20 NW 1021,4 -
15.01.2021 12:00:00 13,4 5,8 7 4 30 16 NNW 1021,8 0,0
15.01.2021 11:00:00 13,3 5,5 6 3 36 19 NNW 1021,8 0,0
15.01.2021 10:00:00 12,7 5,1 10 5 32 18 NNW 1021,7 0,0
15.01.2021 09:00:00 11,7 5,6 10 5 28 15 NNW 1021,3 0,0
15.01.2021 08:00:00 11,9 5,5 10 6 32 17 NW 1021,1 0,0
15.01.2021 07:00:00 9,9 6,5 1 1 8 5 WNW 1021,0 -
15.01.2021 06:00:00 9,8 5,9 3 2 10 5 W 1020,9 0,0
15.01.2021 05:00:00 8,6 5,3 2 1 7 4 WNW 1021,0 0,0
15.01.2021 04:00:00 8,0 5,1 2 1 6 3 W 1021,2 0,0
15.01.2021 03:00:00 8,6 5,0 3 2 9 5 W 1021,3 0,0
15.01.2021 02:00:00 9,2 5,1 3 1 12 7 WNW 1021,5 0,0
15.01.2021 01:00:00 9,5 5,1 1 1 16 9 NNW 1021,7 -
15.01.2021 00:00:00 8,7 5,0 1 1 13 7 W 1021,9 0,0
14.01.2021 23:00:00 9,6 4,8 6 4 14 7 NW 1021,7 0,0
14.01.2021 22:00:00 7,4 4,1 2 1 6 4 NNW 1021,6 0,0
14.01.2021 21:00:00 8,7 4,1 3 1 10 5 NNW 1021,5 0,0
14.01.2021 20:00:00 9,2 4,5 3 2 8 4 NW 1021,3 0,0
14.01.2021 19:00:00 10,5 4,6 5 3 17 9 NW 1021,2 -
14.01.2021 18:00:00 10,9 4,6 8 4 14 8 NNW 1021,1 0,0
14.01.2021 17:00:00 12,5 4,6 5 3 14 8 NNW 1021,1 0,0
14.01.2021 16:00:00 14,1 5,9 5 3 20 11 WNW 1021,0 0,0
14.01.2021 15:00:00 13,9 5,8 12 7 18 10 NNE 1021,1 0,0
14.01.2021 14:00:00 15,8 7,0 4 2 10 5 SE 1021,6 0,0
14.01.2021 13:00:00 14,6 6,7 6 3 12 7 S 1022,5 -

tt = temperature
td = dewpoint
ff = wind speed
fx = gusts
dd = wind direction
ppp = reduced air pressure
rr = precipitation

Next stations